Time;durP1;ratioP1;P1;durP2;ratioP2;P2;SDS_P1;SDS_P2;PMS_P1;PMS_P2;Temp;Humidity;BMP_temperature;BMP_pressure;BME280_temperature;BME280_humidity;BME280_pressure;Samples;Min_cycle;Max_cycle;Signal;HPM_P1;HPM_P2
2023/09/16 00:04:57;;;;;;;2.92;2.40;;;21.50;69.00;;;;;;10473264;28;20038;-59
2023/09/16 00:09:58;;;;;;;3.35;2.30;;;21.40;69.00;;;;;;10495844;28;20033;-59
2023/09/16 00:14:59;;;;;;;2.80;2.38;;;21.40;69.00;;;;;;10496061;28;20107;-59
2023/09/16 00:19:59;;;;;;;3.40;2.40;;;21.40;69.00;;;;;;10495676;28;20425;-59
2023/09/16 00:25:00;;;;;;;2.58;2.13;;;21.40;68.90;;;;;;10464997;28;20025;-59
2023/09/16 00:30:03;;;;;;;3.55;2.28;;;21.40;68.90;;;;;;10453452;28;20375;-57
2023/09/16 00:35:06;;;;;;;3.75;2.60;;;21.40;68.90;;;;;;10453848;28;20041;-58
2023/09/16 00:40:07;;;;;;;3.88;2.10;;;21.40;69.00;;;;;;10453172;28;20539;-59
2023/09/16 00:45:10;;;;;;;2.47;2.03;;;21.40;68.90;;;;;;10450546;28;20039;-58
2023/09/16 00:50:17;;;;;;;3.00;2.17;;;21.40;68.80;;;;;;10450270;28;20029;-57
2023/09/16 00:55:18;;;;;;;2.42;1.80;;;21.40;68.90;;;;;;10450500;28;20033;-58
2023/09/16 01:00:19;;;;;;;2.40;1.70;;;21.40;68.90;;;;;;10449712;28;20037;-58
2023/09/16 01:05:20;;;;;;;2.28;2.03;;;21.40;68.90;;;;;;10488409;28;20105;-59
2023/09/16 01:10:22;;;;;;;3.20;2.03;;;21.40;68.90;;;;;;10493473;28;20097;-58
2023/09/16 01:15:27;;;;;;;2.63;1.98;;;21.40;68.90;;;;;;10492993;28;20047;-59
2023/09/16 01:20:28;;;;;;;2.88;2.25;;;21.30;68.80;;;;;;10489845;28;20059;-58
2023/09/16 01:25:29;;;;;;;2.90;2.10;;;21.30;68.80;;;;;;10459336;28;20068;-57
2023/09/16 01:30:35;;;;;;;2.58;2.10;;;21.30;68.80;;;;;;10467958;28;20025;-59
2023/09/16 01:35:39;;;;;;;4.15;2.13;;;21.30;68.80;;;;;;10447148;28;20040;-57
2023/09/16 01:40:44;;;;;;;2.10;1.77;;;21.30;68.80;;;;;;10460041;28;20476;-58
2023/09/16 01:45:45;;;;;;;4.20;2.20;;;21.30;68.70;;;;;;10448112;28;20051;-59
2023/09/16 01:50:46;;;;;;;4.30;2.05;;;21.30;68.70;;;;;;10447677;28;20044;-58
2023/09/16 01:55:47;;;;;;;2.63;2.20;;;21.30;68.70;;;;;;10447518;28;20032;-57
2023/09/16 02:00:48;;;;;;;3.63;2.40;;;21.30;68.70;;;;;;10447816;28;20029;-59
2023/09/16 02:05:49;;;;;;;2.58;2.30;;;21.30;68.80;;;;;;10447042;28;20025;-58
2023/09/16 02:10:50;;;;;;;2.80;2.03;;;21.20;68.70;;;;;;10447482;28;20036;-57
2023/09/16 02:15:51;;;;;;;3.03;1.90;;;21.30;68.70;;;;;;10472197;28;20040;-58
2023/09/16 02:20:52;;;;;;;3.85;2.17;;;21.30;68.70;;;;;;10488371;28;20028;-58
2023/09/16 02:25:52;;;;;;;3.28;2.25;;;21.20;68.60;;;;;;10450811;28;20083;-57
2023/09/16 02:30:53;;;;;;;3.10;2.38;;;21.20;68.60;;;;;;10476836;28;20029;-58
2023/09/16 02:35:54;;;;;;;2.42;1.85;;;21.20;68.50;;;;;;10460268;28;20029;-58
2023/09/16 02:40:54;;;;;;;2.90;1.83;;;21.20;68.50;;;;;;10460510;28;20232;-58
2023/09/16 02:45:56;;;;;;;2.50;1.88;;;21.20;68.60;;;;;;10459920;28;20492;-59
2023/09/16 02:50:57;;;;;;;3.03;1.90;;;21.20;68.50;;;;;;10460168;28;20399;-59
2023/09/16 02:55:58;;;;;;;3.25;2.42;;;21.20;68.50;;;;;;10460958;28;20047;-58
2023/09/16 03:00:58;;;;;;;2.40;1.92;;;21.20;68.50;;;;;;10460191;28;20033;-57
2023/09/16 03:05:59;;;;;;;3.08;1.77;;;21.20;68.40;;;;;;10459998;28;20032;-59
2023/09/16 03:11:05;;;;;;;2.20;1.98;;;21.20;68.40;;;;;;10460333;28;20051;-58
2023/09/16 03:16:21;;;;;;;2.67;2.10;;;21.20;69.00;;;;;;10474451;28;20044;-58
2023/09/16 03:21:25;;;;;;;2.78;2.17;;;21.10;68.30;;;;;;10501146;28;20464;-58
2023/09/16 03:26:26;;;;;;;3.15;1.83;;;21.10;68.30;;;;;;10459286;28;20464;-57
2023/09/16 03:31:27;;;;;;;2.65;2.00;;;21.10;68.30;;;;;;10481033;28;20345;-58
2023/09/16 03:36:27;;;;;;;3.05;2.75;;;21.10;68.20;;;;;;10459772;28;20029;-58
2023/09/16 03:41:28;;;;;;;2.70;2.08;;;21.10;68.20;;;;;;10467396;28;20036;-58
2023/09/16 03:46:29;;;;;;;2.97;2.00;;;21.10;68.20;;;;;;10455791;28;20367;-58
2023/09/16 03:51:30;;;;;;;2.58;2.05;;;21.10;68.20;;;;;;10456268;28;20029;-58
2023/09/16 03:56:30;;;;;;;2.45;1.85;;;21.10;68.20;;;;;;10476819;28;20028;-57
2023/09/16 04:01:31;;;;;;;2.42;1.98;;;21.10;68.20;;;;;;10493524;28;20040;-58
2023/09/16 04:06:32;;;;;;;2.90;2.20;;;21.10;68.80;;;;;;10492894;28;20384;-57
2023/09/16 04:11:33;;;;;;;3.17;1.80;;;21.10;68.20;;;;;;10509370;28;20334;-57
2023/09/16 04:16:33;;;;;;;3.33;1.88;;;21.10;68.20;;;;;;10492343;28;20052;-59
2023/09/16 04:21:34;;;;;;;3.08;1.90;;;21.10;68.20;;;;;;10485278;28;20033;-56
2023/09/16 04:26:35;;;;;;;5.13;2.35;;;21.10;68.10;;;;;;10452743;28;20035;-59
2023/09/16 04:31:35;;;;;;;2.60;1.83;;;21.00;68.10;;;;;;10473360;28;20036;-58
2023/09/16 04:36:36;;;;;;;3.58;2.13;;;21.00;68.10;;;;;;10452824;28;20431;-58
2023/09/16 04:41:37;;;;;;;2.75;1.95;;;21.00;68.00;;;;;;10450778;28;20037;-57
2023/09/16 04:46:38;;;;;;;2.83;1.70;;;21.00;68.00;;;;;;10449843;28;20395;-59
2023/09/16 04:51:38;;;;;;;2.90;2.13;;;21.00;68.10;;;;;;10462778;28;20033;-59
2023/09/16 04:56:39;;;;;;;2.30;1.92;;;21.00;68.00;;;;;;10468303;28;20025;-58
2023/09/16 05:01:40;;;;;;;2.72;2.05;;;21.00;68.10;;;;;;10473978;28;20037;-57
2023/09/16 05:06:41;;;;;;;2.53;2.00;;;21.00;68.10;;;;;;10456323;28;20035;-59
2023/09/16 05:11:43;;;;;;;2.55;2.05;;;21.00;68.20;;;;;;10452323;28;20021;-59
2023/09/16 05:16:44;;;;;;;3.20;2.25;;;21.00;68.20;;;;;;10463768;28;20068;-59
2023/09/16 05:21:44;;;;;;;3.05;2.13;;;21.00;68.20;;;;;;10461029;28;20044;-59
2023/09/16 05:26:45;;;;;;;3.97;2.00;;;20.90;68.10;;;;;;10467363;28;20017;-57
2023/09/16 05:31:46;;;;;;;4.13;2.38;;;21.00;68.00;;;;;;10468915;28;20647;-59
2023/09/16 05:36:47;;;;;;;7.70;2.30;;;21.10;67.70;;;;;;10492524;28;20028;-58
2023/09/16 05:41:49;;;;;;;8.40;2.42;;;21.20;67.30;;;;;;10492877;28;20499;-58
2023/09/16 05:46:50;;;;;;;5.28;2.38;;;21.20;67.10;;;;;;10492359;28;20043;-58
2023/09/16 05:51:50;;;;;;;7.88;2.72;;;21.30;67.70;;;;;;10492099;28;20047;-58
2023/09/16 05:56:51;;;;;;;7.85;1.98;;;21.30;67.50;;;;;;10491722;28;20452;-58
2023/09/16 06:01:52;;;;;;;6.43;2.47;;;21.30;67.60;;;;;;10488374;28;20033;-60
2023/09/16 06:06:52;;;;;;;13.63;2.97;;;21.30;67.80;;;;;;10481923;28;20025;-58
2023/09/16 06:11:53;;;;;;;6.45;2.70;;;21.40;67.80;;;;;;10473016;28;20494;-57
2023/09/16 06:16:54;;;;;;;9.70;2.42;;;21.40;67.80;;;;;;10470392;28;20048;-57
2023/09/16 06:21:55;;;;;;;16.75;3.72;;;21.40;67.40;;;;;;10486677;28;20040;-58
2023/09/16 06:26:56;;;;;;;11.23;3.25;;;21.30;67.70;;;;;;10460198;28;20024;-58
2023/09/16 06:31:57;;;;;;;18.02;5.18;;;21.20;67.70;;;;;;10474122;28;20054;-58
2023/09/16 06:36:59;;;;;;;11.65;3.38;;;21.30;67.70;;;;;;10459514;28;20033;-60
2023/09/16 06:42:00;;;;;;;9.35;3.13;;;21.20;67.80;;;;;;10449674;28;20029;-59
2023/09/16 06:47:01;;;;;;;9.68;3.33;;;21.10;67.90;;;;;;10449055;28;20028;-57
2023/09/16 06:52:02;;;;;;;9.13;3.40;;;21.10;67.90;;;;;;10448982;28;20099;-58
2023/09/16 06:57:03;;;;;;;6.75;4.00;;;21.10;68.00;;;;;;10447993;28;20034;-58
2023/09/16 07:02:04;;;;;;;7.63;3.33;;;21.10;68.00;;;;;;10448349;28;20086;-57
2023/09/16 07:07:04;;;;;;;6.15;2.85;;;21.10;68.00;;;;;;10447362;28;20083;-57
2023/09/16 07:12:06;;;;;;;5.65;2.78;;;21.10;68.10;;;;;;10448009;28;20036;-57
2023/09/16 07:17:07;;;;;;;5.53;2.55;;;21.10;68.10;;;;;;10474011;28;20064;-58
2023/09/16 07:22:08;;;;;;;4.68;2.67;;;21.10;68.20;;;;;;10491273;28;20044;-59
2023/09/16 07:27:09;;;;;;;5.75;3.05;;;21.10;68.20;;;;;;10456505;28;20032;-58
2023/09/16 07:32:10;;;;;;;4.10;2.53;;;21.10;68.20;;;;;;10476121;28;20036;-59
2023/09/16 07:37:10;;;;;;;4.78;2.65;;;21.10;68.20;;;;;;10454375;28;20476;-59
2023/09/16 07:42:11;;;;;;;5.55;2.42;;;21.10;68.20;;;;;;10463362;28;20036;-58
2023/09/16 07:47:12;;;;;;;3.58;2.15;;;21.10;68.20;;;;;;10456085;28;20029;-59
2023/09/16 07:52:12;;;;;;;6.05;2.95;;;21.10;68.10;;;;;;10455875;28;20520;-59
2023/09/16 07:57:13;;;;;;;5.07;3.10;;;21.10;68.20;;;;;;10454553;28;20040;-57
2023/09/16 08:02:14;;;;;;;5.90;2.70;;;21.10;68.20;;;;;;10454413;28;20025;-59
2023/09/16 08:07:15;;;;;;;5.97;2.67;;;21.10;68.20;;;;;;10453277;28;20037;-57
2023/09/16 08:12:17;;;;;;;5.93;2.40;;;21.10;68.20;;;;;;10453875;28;20452;-59
2023/09/16 08:17:18;;;;;;;3.60;2.38;;;21.20;68.30;;;;;;10477461;28;20053;-58
2023/09/16 08:22:19;;;;;;;5.15;2.85;;;21.10;68.30;;;;;;10487189;28;20393;-58
2023/09/16 08:27:21;;;;;;;5.15;2.63;;;21.10;68.30;;;;;;10451862;28;20036;-59
2023/09/16 08:32:28;;;;;;;3.53;2.53;;;21.20;68.40;;;;;;10474300;28;20678;-59
2023/09/16 08:37:29;;;;;;;5.82;2.33;;;21.10;68.40;;;;;;10451695;28;20112;-59
2023/09/16 08:42:41;;;;;;;4.05;2.47;;;21.20;68.50;;;;;;10451626;28;20044;-59
2023/09/16 08:47:56;;;;;;;5.78;2.90;;;21.20;68.60;;;;;;10479978;28;20025;-58
2023/09/16 08:53:07;;;;;;;4.15;2.53;;;21.20;68.60;;;;;;10493722;28;20036;-58
2023/09/16 08:58:09;;;;;;;4.47;2.40;;;21.20;68.60;;;;;;10452955;28;20094;-58
2023/09/16 09:03:10;;;;;;;5.25;2.55;;;21.30;68.60;;;;;;10480163;28;20115;-58
2023/09/16 09:08:11;;;;;;;3.63;2.22;;;21.30;68.60;;;;;;10492934;28;20036;-59
2023/09/16 09:13:13;;;;;;;4.85;2.22;;;21.30;68.60;;;;;;10492594;28;20024;-58
2023/09/16 09:18:18;;;;;;;5.65;2.72;;;21.30;68.60;;;;;;10492274;28;20055;-57
2023/09/16 09:23:20;;;;;;;3.95;2.00;;;21.30;68.60;;;;;;10475816;28;20131;-59
2023/09/16 09:28:21;;;;;;;4.18;2.22;;;21.40;68.60;;;;;;10482795;28;20036;-58
2023/09/16 09:33:25;;;;;;;3.05;1.98;;;21.40;68.60;;;;;;10461045;28;20491;-58
2023/09/16 09:38:26;;;;;;;4.05;2.35;;;21.40;68.60;;;;;;10485593;28;20044;-58
2023/09/16 09:43:30;;;;;;;3.17;1.80;;;21.40;68.70;;;;;;10485311;28;20032;-60
2023/09/16 09:48:32;;;;;;;8.32;2.92;;;21.40;68.70;;;;;;10464700;28;20419;-59
2023/09/16 09:53:34;;;;;;;5.65;2.20;;;21.50;68.60;;;;;;10470921;28;20028;-59
2023/09/16 09:58:35;;;;;;;9.20;2.53;;;21.50;68.50;;;;;;10465505;28;20475;-60
2023/09/16 10:03:36;;;;;;;9.30;3.00;;;21.70;68.40;;;;;;10469790;28;20025;-58
2023/09/16 10:08:37;;;;;;;14.40;2.92;;;21.70;68.80;;;;;;10466018;28;20037;-58
2023/09/16 10:13:39;;;;;;;18.75;5.07;;;21.70;69.10;;;;;;10471821;28;20024;-57
2023/09/16 10:18:41;;;;;;;19.35;4.00;;;21.80;69.30;;;;;;10467040;28;20404;-57
2023/09/16 10:23:42;;;;;;;12.35;4.18;;;21.80;69.60;;;;;;10470791;28;20059;-58
2023/09/16 10:28:49;;;;;;;15.18;3.90;;;21.80;69.70;;;;;;10466983;28;20501;-58
2023/09/16 10:33:51;;;;;;;14.40;3.70;;;21.90;69.70;;;;;;10468979;28;20033;-58
2023/09/16 10:38:54;;;;;;;25.27;4.63;;;21.90;69.90;;;;;;10456702;28;20044;-57
2023/09/16 10:43:58;;;;;;;28.17;5.45;;;22.00;70.00;;;;;;10476543;28;20032;-59
2023/09/16 10:48:58;;;;;;;20.60;6.38;;;22.00;69.90;;;;;;10461190;28;20115;-59
2023/09/16 10:54:09;;;;;;;24.95;7.07;;;22.10;69.90;;;;;;10471974;28;20021;-61
2023/09/16 10:59:13;;;;;;;19.08;5.65;;;22.10;69.90;;;;;;10472929;28;20068;-59
2023/09/16 11:04:17;;;;;;;18.80;6.03;;;22.10;70.20;;;;;;10474796;28;20028;-59
2023/09/16 11:09:22;;;;;;;25.75;6.18;;;22.20;70.50;;;;;;10479933;28;20043;-58
2023/09/16 11:14:23;;;;;;;15.02;5.75;;;22.20;70.50;;;;;;10475898;28;20096;-62
2023/09/16 11:19:25;;;;;;;16.33;5.10;;;22.10;70.60;;;;;;10477459;28;20102;-61
2023/09/16 11:24:27;;;;;;;17.85;5.38;;;22.10;70.40;;;;;;10467171;28;20036;-58
2023/09/16 11:29:31;;;;;;;14.30;4.63;;;22.10;70.20;;;;;;10484561;28;20033;-58
2023/09/16 11:34:32;;;;;;;23.30;5.78;;;22.30;70.10;;;;;;10479462;28;20048;-59
2023/09/16 11:39:36;;;;;;;16.67;5.63;;;22.30;70.70;;;;;;10475720;28;20068;-58
2023/09/16 11:44:38;;;;;;;20.38;5.50;;;22.30;70.30;;;;;;10474822;28;20504;-61
2023/09/16 11:49:38;;;;;;;24.83;6.82;;;22.30;70.30;;;;;;10491625;28;20379;-59
2023/09/16 11:54:39;;;;;;;20.55;5.38;;;22.30;70.10;;;;;;10470611;28;20032;-60
2023/09/16 11:59:40;;;;;;;23.73;6.13;;;22.20;69.90;;;;;;10453174;28;20033;-59
2023/09/16 12:04:41;;;;;;;15.85;5.50;;;22.20;70.10;;;;;;10470873;28;20028;-60
2023/09/16 12:09:42;;;;;;;16.42;5.88;;;22.20;70.20;;;;;;10487228;28;20076;-58
2023/09/16 12:14:43;;;;;;;13.93;5.35;;;22.20;70.10;;;;;;10489257;28;20025;-58
2023/09/16 12:19:51;;;;;;;13.88;4.78;;;22.20;70.20;;;;;;10466383;28;20045;-59
2023/09/16 12:24:54;;;;;;;15.80;4.65;;;22.20;70.00;;;;;;10459379;28;20052;-59
2023/09/16 12:29:55;;;;;;;19.92;5.85;;;22.30;70.20;;;;;;10460273;28;20033;-59
2023/09/16 12:35:08;;;;;;;11.73;4.25;;;22.30;70.10;;;;;;10453044;28;20426;-60
2023/09/16 12:40:10;;;;;;;14.60;5.50;;;22.30;70.20;;;;;;10475552;28;20040;-59
2023/09/16 12:45:11;;;;;;;15.43;5.32;;;22.30;70.20;;;;;;10471268;28;20029;-60
2023/09/16 12:50:12;;;;;;;14.30;5.80;;;22.30;69.80;;;;;;10450080;28;20028;-62
2023/09/16 12:55:14;;;;;;;15.13;5.13;;;22.30;69.60;;;;;;10465360;28;20032;-63
2023/09/16 13:00:25;;;;;;;12.90;4.90;;;22.20;69.70;;;;;;10451524;28;20037;-62
2023/09/16 13:05:28;;;;;;;14.90;4.55;;;22.20;69.80;;;;;;10451323;28;20029;-59
2023/09/16 13:10:29;;;;;;;16.08;4.80;;;22.20;69.60;;;;;;10455809;28;20040;-59
2023/09/16 13:15:30;;;;;;;10.75;4.35;;;22.20;70.30;;;;;;10471667;28;20432;-60
2023/09/16 13:20:39;;;;;;;10.93;4.38;;;22.20;69.70;;;;;;10449445;28;20033;-60
2023/09/16 13:25:41;;;;;;;14.65;5.47;;;22.20;69.60;;;;;;10454395;28;20048;-59
2023/09/16 13:31:08;;;;;;;19.92;5.38;;;22.20;69.60;;;;;;10474941;28;20029;-61
2023/09/16 13:36:09;;;;;;;20.63;5.82;;;22.20;69.60;;;;;;10489038;28;20079;-62
2023/09/16 13:41:09;;;;;;;17.20;5.22;;;22.20;70.00;;;;;;10488250;28;20060;-61
2023/09/16 13:46:10;;;;;;;17.02;5.65;;;22.20;69.30;;;;;;10491581;28;20024;-60
2023/09/16 13:51:13;;;;;;;13.50;5.65;;;22.30;69.30;;;;;;10491369;28;20038;-59
2023/09/16 13:56:14;;;;;;;12.60;4.78;;;22.30;69.10;;;;;;10491553;28;20032;-59
2023/09/16 14:01:15;;;;;;;14.30;5.35;;;22.50;69.80;;;;;;10465827;28;20040;-59
2023/09/16 14:06:15;;;;;;;17.83;6.03;;;22.70;69.80;;;;;;10465497;28;20086;-58
2023/09/16 14:11:16;;;;;;;14.77;4.25;;;22.70;69.30;;;;;;10460234;28;20025;-58
2023/09/16 14:16:17;;;;;;;13.23;4.97;;;22.80;69.00;;;;;;10461463;28;20484;-59
2023/09/16 14:21:17;;;;;;;13.10;6.55;;;22.80;68.90;;;;;;10453979;28;20490;-61
2023/09/16 14:26:18;;;;;;;11.27;4.85;;;22.80;68.80;;;;;;10462728;28;20482;-60
2023/09/16 14:31:20;;;;;;;10.00;5.85;;;22.80;68.70;;;;;;10464770;28;20040;-61
2023/09/16 14:36:21;;;;;;;10.32;5.13;;;22.80;68.80;;;;;;10471871;28;20127;-61
2023/09/16 14:41:22;;;;;;;7.03;4.78;;;22.90;68.50;;;;;;10466764;28;20021;-61
2023/09/16 14:46:23;;;;;;;6.72;4.43;;;22.90;68.40;;;;;;10461222;28;20033;-61
2023/09/16 14:51:24;;;;;;;7.60;4.90;;;22.90;68.40;;;;;;10447971;28;20029;-61
2023/09/16 14:56:25;;;;;;;8.43;5.07;;;22.90;68.40;;;;;;10448696;28;20155;-60
2023/09/16 15:01:26;;;;;;;12.43;6.97;;;23.00;68.00;;;;;;10448652;28;20037;-61
2023/09/16 15:06:26;;;;;;;19.35;9.52;;;22.80;70.20;;;;;;10448367;28;20029;-60
2023/09/16 15:11:28;;;;;;;10.95;6.10;;;22.80;71.60;;;;;;10461064;28;20031;-61
2023/09/16 15:16:28;;;;;;;11.30;6.57;;;22.50;70.20;;;;;;10474873;28;20044;-61
2023/09/16 15:21:29;;;;;;;8.38;5.57;;;22.40;72.00;;;;;;10457617;28;20029;-60
2023/09/16 15:26:30;;;;;;;8.70;5.38;;;22.40;71.10;;;;;;10448117;28;20029;-60
2023/09/16 15:31:34;;;;;;;7.30;6.15;;;22.30;70.80;;;;;;10467442;28;20036;-60
2023/09/16 15:36:35;;;;;;;7.72;6.35;;;22.40;70.80;;;;;;10448915;28;20029;-61
2023/09/16 15:41:36;;;;;;;6.18;5.25;;;22.40;70.70;;;;;;10466306;28;20037;-61
2023/09/16 15:46:36;;;;;;;6.93;5.38;;;22.40;70.60;;;;;;10454841;28;20411;-60
2023/09/16 15:51:37;;;;;;;6.22;4.57;;;22.40;71.00;;;;;;10456226;28;20033;-58
2023/09/16 15:56:38;;;;;;;7.93;5.57;;;22.50;70.80;;;;;;10455325;28;20033;-57
2023/09/16 16:01:39;;;;;;;7.63;5.60;;;22.50;71.10;;;;;;10455373;28;20029;-59
2023/09/16 16:06:40;;;;;;;10.48;5.35;;;22.50;71.20;;;;;;10455156;28;20124;-60
2023/09/16 16:11:41;;;;;;;9.05;4.97;;;22.40;70.40;;;;;;10455221;28;20059;-58
2023/09/16 16:16:42;;;;;;;9.27;4.50;;;22.30;70.50;;;;;;10473502;28;20564;-59
2023/09/16 16:21:42;;;;;;;8.60;5.28;;;22.20;70.50;;;;;;10460402;28;20105;-58
2023/09/16 16:26:43;;;;;;;8.25;5.00;;;22.20;70.50;;;;;;10453998;28;20387;-59
2023/09/16 16:31:45;;;;;;;7.97;5.40;;;22.20;70.60;;;;;;10476183;28;20021;-58
2023/09/16 16:36:45;;;;;;;8.80;5.40;;;22.20;70.70;;;;;;10453946;28;20427;-58
2023/09/16 16:41:46;;;;;;;8.45;5.32;;;22.10;70.80;;;;;;10453591;28;20040;-58
2023/09/16 16:46:47;;;;;;;6.00;4.32;;;22.10;70.80;;;;;;10452894;28;20025;-58
2023/09/16 16:51:47;;;;;;;7.75;5.30;;;22.20;70.90;;;;;;10458608;28;20020;-58
2023/09/16 16:56:48;;;;;;;5.55;4.90;;;22.10;70.70;;;;;;10462879;28;20490;-60
2023/09/16 17:01:49;;;;;;;7.07;4.65;;;22.10;71.00;;;;;;10452884;28;20454;-60
2023/09/16 17:06:51;;;;;;;8.15;3.53;;;22.20;70.90;;;;;;10452773;28;20074;-58
2023/09/16 17:11:52;;;;;;;8.43;4.57;;;22.40;70.10;;;;;;10472118;28;20032;-60
2023/09/16 17:16:52;;;;;;;6.07;4.05;;;22.50;69.90;;;;;;10469704;28;20048;-59
2023/09/16 17:21:53;;;;;;;6.22;4.43;;;22.30;71.00;;;;;;10466719;28;20027;-60
2023/09/16 17:26:55;;;;;;;9.77;5.05;;;22.20;70.40;;;;;;10467494;28;20036;-58
2023/09/16 17:31:56;;;;;;;6.03;4.03;;;22.30;71.10;;;;;;10470460;28;20446;-60
2023/09/16 17:36:57;;;;;;;8.02;6.28;;;22.20;71.00;;;;;;10464906;28;20044;-59
2023/09/16 17:41:58;;;;;;;7.30;4.63;;;22.20;72.00;;;;;;10450617;28;20076;-59
2023/09/16 17:46:59;;;;;;;7.85;4.90;;;22.30;71.50;;;;;;10462980;28;20107;-59
2023/09/16 17:52:00;;;;;;;5.65;4.25;;;22.20;71.30;;;;;;10461565;28;20047;-58
2023/09/16 17:57:01;;;;;;;5.68;4.30;;;22.20;71.50;;;;;;10452346;28;20252;-57
2023/09/16 18:02:04;;;;;;;5.80;4.22;;;22.10;70.90;;;;;;10449486;28;20033;-58
2023/09/16 18:07:05;;;;;;;5.40;4.03;;;22.10;71.00;;;;;;10475174;28;20115;-59
2023/09/16 18:12:06;;;;;;;4.63;3.92;;;22.10;71.10;;;;;;10464630;28;20472;-57
2023/09/16 18:17:06;;;;;;;5.72;3.72;;;22.10;71.00;;;;;;10458885;28;20045;-58
2023/09/16 18:22:08;;;;;;;4.88;3.42;;;22.00;71.00;;;;;;10468570;28;20521;-60
2023/09/16 18:27:09;;;;;;;6.00;4.05;;;22.00;71.10;;;;;;10457403;28;20079;-59
2023/09/16 18:32:10;;;;;;;5.70;4.53;;;22.00;71.10;;;;;;10472907;28;20024;-57
2023/09/16 18:37:11;;;;;;;16.65;5.07;;;22.00;71.10;;;;;;10446796;28;20028;-57
2023/09/16 18:42:12;;;;;;;6.72;4.03;;;22.10;71.50;;;;;;10447098;28;20021;-57
2023/09/16 18:47:13;;;;;;;5.40;3.88;;;22.00;70.90;;;;;;10454421;28;20111;-57
2023/09/16 18:52:14;;;;;;;6.55;3.83;;;22.00;71.00;;;;;;10445711;28;20059;-57
2023/09/16 18:57:18;;;;;;;7.35;4.82;;;22.00;71.10;;;;;;10465361;28;20033;-58
2023/09/16 19:02:19;;;;;;;4.63;3.83;;;22.00;71.30;;;;;;10452544;28;20040;-58
2023/09/16 19:07:20;;;;;;;5.00;3.78;;;22.00;71.10;;;;;;10481009;28;20452;-57
2023/09/16 19:12:21;;;;;;;5.50;3.65;;;22.00;71.10;;;;;;10494791;28;20028;-57
2023/09/16 19:17:23;;;;;;;4.30;3.47;;;22.00;71.20;;;;;;10497992;28;20052;-58
2023/09/16 19:22:23;;;;;;;5.95;3.80;;;22.00;71.20;;;;;;10491557;28;20044;-58
2023/09/16 19:27:27;;;;;;;6.15;3.85;;;21.90;71.20;;;;;;10467925;28;20040;-58
2023/09/16 19:32:28;;;;;;;4.55;3.50;;;21.90;71.10;;;;;;10476919;28;20028;-56
2023/09/16 19:37:29;;;;;;;5.70;3.97;;;21.90;71.50;;;;;;10455953;28;20036;-57
2023/09/16 19:42:32;;;;;;;5.25;3.90;;;21.90;71.20;;;;;;10456169;28;20388;-58
2023/09/16 19:47:35;;;;;;;6.70;4.65;;;22.00;71.20;;;;;;10468933;28;20443;-58
2023/09/16 19:52:35;;;;;;;6.65;3.95;;;21.90;71.20;;;;;;10455553;28;20033;-58
2023/09/16 19:57:36;;;;;;;4.95;3.47;;;21.90;71.30;;;;;;10455553;28;20025;-58
2023/09/16 20:02:37;;;;;;;4.47;3.35;;;22.00;71.20;;;;;;10455426;28;20029;-58
2023/09/16 20:07:38;;;;;;;4.95;3.85;;;21.90;71.20;;;;;;10454575;28;20037;-58
2023/09/16 20:12:39;;;;;;;3.92;3.53;;;21.90;71.30;;;;;;10454302;28;20479;-57
2023/09/16 20:17:39;;;;;;;3.85;3.40;;;21.90;71.20;;;;;;10481807;28;20045;-58
2023/09/16 20:22:40;;;;;;;4.35;3.40;;;21.90;71.30;;;;;;10484222;28;20070;-58
2023/09/16 20:27:42;;;;;;;4.60;3.55;;;21.90;71.30;;;;;;10467109;28;20041;-58
2023/09/16 20:32:43;;;;;;;4.93;3.80;;;21.90;71.30;;;;;;10473991;28;20083;-56
2023/09/16 20:37:44;;;;;;;3.88;3.35;;;21.90;71.30;;;;;;10453445;28;20443;-58
2023/09/16 20:42:44;;;;;;;4.47;3.55;;;21.90;71.30;;;;;;10453571;28;20032;-58
2023/09/16 20:47:45;;;;;;;5.65;3.70;;;21.90;71.30;;;;;;10452733;28;20029;-57
2023/09/16 20:52:47;;;;;;;4.68;3.83;;;21.90;71.30;;;;;;10464731;28;20112;-58
2023/09/16 20:57:47;;;;;;;4.47;3.85;;;21.90;71.30;;;;;;10452745;28;20096;-58
2023/09/16 21:02:48;;;;;;;4.20;3.80;;;21.90;71.30;;;;;;10452792;28;20376;-58
2023/09/16 21:07:49;;;;;;;5.25;4.22;;;21.90;71.30;;;;;;10451839;28;20033;-58
2023/09/16 21:12:50;;;;;;;5.45;3.40;;;21.90;71.30;;;;;;10452290;28;20033;-58
2023/09/16 21:17:50;;;;;;;4.85;4.13;;;21.90;71.20;;;;;;10480467;28;20051;-58
2023/09/16 21:22:51;;;;;;;4.60;4.13;;;21.90;71.20;;;;;;10480940;28;20021;-58
2023/09/16 21:27:52;;;;;;;5.03;3.35;;;21.80;71.20;;;;;;10453775;28;20023;-58
2023/09/16 21:32:53;;;;;;;4.10;3.45;;;21.90;71.20;;;;;;10469146;28;20151;-57
2023/09/16 21:37:53;;;;;;;3.78;3.38;;;21.80;71.20;;;;;;10478517;28;20032;-58
2023/09/16 21:42:54;;;;;;;3.83;2.95;;;21.90;71.20;;;;;;10492961;28;20038;-58
2023/09/16 21:47:55;;;;;;;4.03;3.22;;;21.90;71.80;;;;;;10492508;28;20462;-58
2023/09/16 21:52:56;;;;;;;4.70;3.60;;;21.80;71.10;;;;;;10492380;28;20038;-58
2023/09/16 21:57:57;;;;;;;4.93;3.53;;;21.90;71.20;;;;;;10491720;28;20029;-58
2023/09/16 22:03:04;;;;;;;4.13;3.45;;;21.80;71.20;;;;;;10491787;28;20037;-57
2023/09/16 22:08:05;;;;;;;4.13;3.42;;;21.90;71.20;;;;;;10461306;28;20092;-58
2023/09/16 22:13:07;;;;;;;4.55;4.07;;;21.80;71.20;;;;;;10450440;28;20037;-58
2023/09/16 22:18:08;;;;;;;4.65;3.88;;;21.90;71.20;;;;;;10481117;28;20056;-58
2023/09/16 22:23:08;;;;;;;4.00;3.10;;;21.80;71.10;;;;;;10457978;28;20033;-58
2023/09/16 22:28:09;;;;;;;3.88;3.08;;;21.80;71.10;;;;;;10456674;28;20032;-58
2023/09/16 22:33:10;;;;;;;5.75;3.58;;;21.80;71.10;;;;;;10462964;28;20341;-58
2023/09/16 22:38:11;;;;;;;4.20;3.60;;;21.80;71.10;;;;;;10449640;28;20037;-58
2023/09/16 22:43:11;;;;;;;4.35;2.92;;;21.80;71.10;;;;;;10449366;28;20025;-58
2023/09/16 22:48:12;;;;;;;3.50;3.20;;;21.80;71.10;;;;;;10455242;28;20415;-57
2023/09/16 22:53:13;;;;;;;4.88;3.70;;;21.80;71.10;;;;;;10456895;28;20033;-57
2023/09/16 22:58:14;;;;;;;3.85;2.75;;;21.80;71.10;;;;;;10454455;28;20071;-57
2023/09/16 23:03:14;;;;;;;3.30;3.00;;;21.80;71.10;;;;;;10454484;28;20044;-58
2023/09/16 23:08:15;;;;;;;3.75;2.88;;;21.80;71.00;;;;;;10453955;28;20484;-57
2023/09/16 23:13:16;;;;;;;3.85;3.15;;;21.80;71.00;;;;;;10454981;28;20039;-57
2023/09/16 23:18:16;;;;;;;4.45;3.05;;;21.80;71.10;;;;;;10486157;28;20044;-57
2023/09/16 23:23:17;;;;;;;3.50;3.20;;;21.80;71.00;;;;;;10479154;28;20398;-58
2023/09/16 23:28:18;;;;;;;3.55;2.95;;;21.80;71.00;;;;;;10462800;28;20032;-58
2023/09/16 23:33:19;;;;;;;3.30;2.70;;;21.80;71.00;;;;;;10465501;28;20025;-57
2023/09/16 23:38:20;;;;;;;3.75;2.88;;;21.80;71.00;;;;;;10452781;28;20119;-57
2023/09/16 23:43:20;;;;;;;3.22;2.70;;;21.80;71.00;;;;;;10453363;28;20028;-57
2023/09/16 23:48:21;;;;;;;3.67;2.95;;;21.80;71.00;;;;;;10452691;28;20040;-58
2023/09/16 23:53:22;;;;;;;3.58;2.80;;;21.80;71.00;;;;;;10453124;28;20416;-57
2023/09/16 23:58:22;;;;;;;3.75;3.10;;;21.80;71.00;;;;;;10451050;28;20025;-57
